Aeroporto :
LOGIN :

Iscrizione | Disclaimer

   EN    FR    IT 

 










Sommario :    VFR   VFR Marginale   IFR   IFR Intensivo   IFR Molto Intensivo
Visibilità : 
Base nubi : 
>= 8 km
>= 3000ft
5 / 8 km
1000 / 3000 ft
1500m / 5 km
500 / 1000 ft
800 / 1500m
200 / 500 ft
< 800m
< 200 ft
Simboli :   Temporali  Nebbia  Neve Forte  Precipitazioni Forti  Vento > 20 kt
SIGMETs :   Varie  Temporali  Ghiacco  Turbolenza  Onda orograficha  Ceneri Vulcaniche






- Altitudine del aeroporto : 38 ft
- Codice IATA : TRE


EGPU - Tiree

ULTIMO METAR :
  • 180220Z AUTO 26020KT 9999 NCD 05/02 Q1001 RERA

METARs OBSOLETI :
  • 180150Z AUTO 27026G40KT 240V300 9000 FEW021/// 04/01 Q1001 RERA
  • 180120Z AUTO 26020KT 6000 -RA FEW017/// SCT020/// 04/02 Q1001
  • 180050Z AUTO 27020G32KT 8000 -RA FEW021/// 05/02 Q1001
  • 180020Z AUTO 28023G33KT 7000 RADZ SCT023/// 05/02 Q1001
  • 172350Z AUTO 27018KT 9999 NCD 05/02 Q1001 RERA

Previsioni scadute.



MetMap, La meteo Aeronautica in un colpo d'occhio ! - Copyright ORBIFLY Dicembre 2007 - Disclaimer

ORBIFLY MET'MAP TEAM :

Programmazione e sviluppo : Alexandra Zaïnal
Concezione : Baudouin d'Aumeries
Aiuto per la programmazione : Marc-Olivier Méhu
Supporto tecnico e logistico : Manuel Goepfert
Aiuto per la traduzione : Arnaldo La Scala

Contatto : metmap@orbifly.com




FONTI E CREDITI :

   NOAA